Time;durP1;ratioP1;P1;durP2;ratioP2;P2;SDS_P1;SDS_P2;PMS_P1;PMS_P2;Temp;Humidity;BMP_temperature;BMP_pressure;BME280_temperature;BME280_humidity;BME280_pressure;Samples;Min_cycle;Max_cycle;Signal;HPM_P1;HPM_P2
2023/02/18 00:00:59;;;;;;;1.88;1.40;;;11.40;99.90;;;10.46;100.00;98221.50;5033034;28;20949;-74
2023/02/18 00:03:28;;;;;;;1.60;1.50;;;11.30;99.90;;;10.49;100.00;98225.53;5032918;28;20445;-74
2023/02/18 00:05:54;;;;;;;3.00;1.70;;;11.40;99.90;;;10.43;100.00;98221.97;5033085;28;20448;-74
2023/02/18 00:08:21;;;;;;;2.13;1.77;;;11.30;99.90;;;10.65;100.00;98227.50;5048296;28;20414;-74
2023/02/18 00:10:47;;;;;;;2.08;1.45;;;11.40;99.90;;;10.66;100.00;98225.66;5032847;28;20498;-74
2023/02/18 00:13:13;;;;;;;1.97;1.40;;;11.50;99.90;;;10.64;100.00;98225.88;5032672;28;20751;-75
2023/02/18 00:15:39;;;;;;;2.70;1.80;;;11.50;99.90;;;10.63;100.00;98224.25;5032896;28;20754;-74
2023/02/18 00:18:06;;;;;;;1.88;1.63;;;11.50;99.90;;;10.51;100.00;98227.94;5032943;28;20403;-74
2023/02/18 00:20:35;;;;;;;1.92;1.45;;;11.40;99.90;;;10.42;100.00;98214.25;5032894;28;20789;-75
2023/02/18 00:23:01;;;;;;;4.00;1.60;;;11.30;99.90;;;10.36;100.00;98213.34;5032490;28;20893;-74
2023/02/18 00:25:27;;;;;;;1.55;1.45;;;11.20;99.90;;;10.50;100.00;98221.03;5032471;28;20482;-74
2023/02/18 00:27:53;;;;;;;1.50;1.40;;;11.30;99.90;;;10.39;100.00;98223.44;5032772;28;20759;-74
2023/02/18 00:30:19;;;;;;;1.42;1.33;;;11.30;99.90;;;10.52;100.00;98224.28;5032596;28;20954;-74
2023/02/18 00:32:45;;;;;;;3.10;1.52;;;11.30;99.90;;;10.46;100.00;98228.63;5032245;28;20415;-74
2023/02/18 00:35:11;;;;;;;1.87;1.67;;;11.40;99.90;;;10.42;100.00;98223.00;5032473;28;20963;-74
2023/02/18 00:37:38;;;;;;;1.90;1.60;;;11.30;99.90;;;10.53;100.00;98231.16;5032471;28;20435;-74
2023/02/18 00:40:06;;;;;;;2.63;1.60;;;11.40;99.90;;;10.62;100.00;98235.06;5032623;28;20407;-74
2023/02/18 00:42:32;;;;;;;2.57;1.43;;;11.40;99.90;;;10.56;100.00;98233.34;5032081;28;20395;-74
2023/02/18 00:44:58;;;;;;;4.38;1.40;;;11.40;99.90;;;10.47;100.00;98214.34;5032355;28;20921;-74
2023/02/18 00:47:24;;;;;;;1.48;1.38;;;11.40;99.90;;;10.50;100.00;98200.66;5032514;28;20399;-74
2023/02/18 00:49:50;;;;;;;2.17;1.47;;;11.30;99.90;;;10.39;100.00;98201.47;5032293;28;20399;-74
2023/02/18 00:52:16;;;;;;;1.70;1.40;;;11.30;99.90;;;10.48;100.00;98202.75;5031810;28;21058;-74
2023/02/18 00:54:43;;;;;;;2.70;1.50;;;11.30;99.90;;;10.41;100.00;98207.34;5032016;28;20431;-74
2023/02/18 00:57:09;;;;;;;1.80;1.67;;;11.30;99.90;;;10.42;100.00;98193.06;5032125;28;20407;-74
2023/02/18 00:59:35;;;;;;;2.07;1.43;;;11.30;99.90;;;10.38;100.00;98208.59;5031887;28;20411;-74
2023/02/18 01:02:01;;;;;;;1.98;1.77;;;11.30;99.90;;;10.43;100.00;98206.09;5047065;28;20403;-74
2023/02/18 01:04:26;;;;;;;2.08;1.77;;;11.30;99.90;;;10.37;100.00;98204.34;5031973;28;20403;-74
2023/02/18 01:06:52;;;;;;;1.90;1.70;;;11.30;99.90;;;10.43;100.00;98194.69;5031954;28;20561;-74
2023/02/18 01:09:18;;;;;;;2.17;1.75;;;11.30;99.90;;;10.46;100.00;98197.66;5031977;28;20494;-74
2023/02/18 01:11:45;;;;;;;2.67;1.60;;;11.30;99.90;;;10.42;100.00;98201.00;5031430;28;20426;-74
2023/02/18 01:14:11;;;;;;;3.08;1.98;;;11.30;99.90;;;10.34;100.00;98188.94;5031747;28;20402;-74
2023/02/18 01:16:37;;;;;;;3.92;1.73;;;11.20;99.90;;;10.34;100.00;98182.81;5031743;28;20447;-74
2023/02/18 01:19:03;;;;;;;1.95;1.80;;;11.20;99.90;;;10.40;100.00;98185.34;5031737;28;20776;-74
2023/02/18 01:21:29;;;;;;;4.30;2.00;;;11.20;99.90;;;10.58;100.00;98183.63;5031222;28;20406;-74
2023/02/18 01:23:55;;;;;;;1.98;1.73;;;11.30;99.90;;;10.43;100.00;98179.63;5031566;28;20869;-74
2023/02/18 01:26:21;;;;;;;2.60;2.00;;;11.30;99.90;;;10.28;100.00;98187.19;5031384;28;20485;-74
2023/02/18 01:28:48;;;;;;;3.80;2.08;;;11.20;99.90;;;10.34;100.00;98177.53;5031509;28;20952;-74
2023/02/18 01:31:14;;;;;;;3.28;2.13;;;11.20;99.90;;;10.46;100.00;98178.31;5031226;28;20482;-74
2023/02/18 01:33:41;;;;;;;3.20;2.23;;;11.20;99.90;;;10.37;100.00;98169.16;5031238;28;20407;-74
2023/02/18 01:36:09;;;;;;;2.30;2.10;;;11.30;99.90;;;10.28;100.00;98170.53;5031255;28;20407;-74
2023/02/18 01:38:35;;;;;;;2.72;2.30;;;11.20;99.90;;;10.27;100.00;98169.72;5031239;28;20431;-74
2023/02/18 01:41:01;;;;;;;2.40;2.20;;;11.20;99.90;;;10.26;100.00;98178.69;5031223;28;20773;-74
2023/02/18 01:43:27;;;;;;;3.03;2.05;;;11.10;99.90;;;10.12;100.00;98181.75;5030982;28;20469;-74
2023/02/18 01:46:11;;;;;;;3.00;2.10;;;11.00;99.90;;;10.10;100.00;98177.47;5031095;28;20403;-74
2023/02/18 01:48:41;;;;;;;2.40;2.20;;;11.00;99.90;;;9.95;100.00;98174.47;5031217;28;20407;-74
2023/02/18 01:51:12;;;;;;;2.70;2.17;;;10.90;99.90;;;9.89;100.00;98166.63;5030946;28;20765;-74
2023/02/18 01:53:48;;;;;;;3.05;2.20;;;10.80;99.90;;;9.93;100.00;98168.59;5030650;28;20476;-74
2023/02/18 01:56:21;;;;;;;3.45;1.80;;;10.80;99.90;;;9.86;100.00;98167.88;5031031;28;20434;-74
2023/02/18 01:58:48;;;;;;;2.78;2.10;;;10.80;99.90;;;9.85;100.00;98160.22;5046345;28;20873;-74
2023/02/18 02:01:15;;;;;;;2.97;2.20;;;10.70;99.90;;;9.84;100.00;98166.53;5030883;28;20395;-74
2023/02/18 02:03:41;;;;;;;3.00;2.03;;;10.70;99.90;;;9.73;100.00;98172.56;5030744;28;20485;-74
2023/02/18 02:06:15;;;;;;;3.83;2.80;;;10.70;99.90;;;9.87;100.00;98176.63;5030677;28;20430;-74
2023/02/18 02:08:43;;;;;;;2.50;2.17;;;10.70;99.90;;;9.77;100.00;98161.34;5030722;28;20403;-74
2023/02/18 02:11:23;;;;;;;4.18;2.50;;;10.70;99.90;;;9.69;100.00;98157.19;5029877;28;20410;-74
2023/02/18 02:14:21;;;;;;;4.63;2.72;;;10.60;99.90;;;9.63;100.00;98165.19;5030625;28;20829;-74
2023/02/18 02:17:01;;;;;;;3.13;2.83;;;10.60;99.90;;;9.61;100.00;98169.91;5030449;28;20849;-74
2023/02/18 02:20:25;;;;;;;4.65;2.72;;;10.50;99.90;;;9.63;100.00;98171.28;5030627;28;20403;-74
2023/02/18 02:23:56;;;;;;;3.22;2.70;;;10.60;99.90;;;9.62;100.00;98169.66;5015791;28;20410;-74
2023/02/18 02:27:20;;;;;;;5.23;3.10;;;10.50;99.90;;;9.59;100.00;98174.63;5030415;28;20522;-75
2023/02/18 02:30:40;;;;;;;3.10;2.80;;;10.50;99.90;;;9.63;100.00;98176.56;5030531;28;20490;-74
2023/02/18 02:33:52;;;;;;;2.83;2.50;;;10.60;99.90;;;9.66;100.00;98159.47;5029323;28;21295;-74
2023/02/18 02:36:26;;;;;;;6.82;3.20;;;10.60;99.90;;;9.68;100.00;98157.41;5030315;28;20406;-74
2023/02/18 02:39:00;;;;;;;3.65;2.58;;;10.60;99.90;;;9.78;100.00;98157.63;5030462;28;20873;-74
2023/02/18 02:41:41;;;;;;;3.38;2.55;;;10.60;99.90;;;9.76;100.00;98153.63;5030132;28;20800;-74
2023/02/18 02:44:20;;;;;;;3.65;2.40;;;10.70;99.90;;;9.70;100.00;98163.25;5030423;28;20402;-74
2023/02/18 02:46:50;;;;;;;4.20;2.50;;;10.60;99.90;;;9.75;100.00;98149.38;5030296;28;20396;-74
2023/02/18 02:49:31;;;;;;;2.83;2.50;;;10.70;99.90;;;9.69;100.00;98145.81;5030300;28;20392;-74
2023/02/18 02:52:06;;;;;;;2.83;2.22;;;10.60;99.90;;;9.73;100.00;98146.94;5029871;28;20493;-75
2023/02/18 02:54:32;;;;;;;3.45;2.00;;;10.60;99.90;;;9.72;100.00;98140.03;5030191;28;20403;-74
2023/02/18 02:57:08;;;;;;;2.55;2.03;;;10.60;99.90;;;9.74;100.00;98138.00;5030226;28;20438;-74
2023/02/18 02:59:39;;;;;;;4.50;2.45;;;10.60;99.90;;;9.85;100.00;98136.41;5045633;28;20452;-74
2023/02/18 03:02:22;;;;;;;5.22;2.70;;;10.70;99.90;;;9.79;100.00;98140.75;5029892;28;20497;-74
2023/02/18 03:05:13;;;;;;;2.83;2.30;;;10.70;99.90;;;9.80;100.00;98136.25;5030175;28;20395;-74
2023/02/18 03:07:59;;;;;;;2.67;2.30;;;10.70;99.90;;;9.86;100.00;98141.44;5030095;28;20437;-74
2023/02/18 03:10:46;;;;;;;4.47;2.42;;;10.70;99.90;;;9.91;100.00;98152.16;5030053;28;20873;-74
2023/02/18 03:13:24;;;;;;;2.53;2.25;;;10.70;99.90;;;9.83;100.00;98157.78;5029816;28;20908;-74
2023/02/18 03:15:58;;;;;;;3.97;2.45;;;10.70;99.90;;;9.96;100.00;98156.75;5029971;28;20403;-74
2023/02/18 03:18:34;;;;;;;3.73;2.50;;;10.80;99.90;;;9.97;100.00;98140.69;5030024;28;20469;-74
2023/02/18 03:21:08;;;;;;;4.23;2.20;;;10.80;99.90;;;9.85;100.00;98139.06;5029975;28;20457;-74
2023/02/18 03:23:41;;;;;;;2.92;2.10;;;10.80;99.90;;;9.78;100.00;98131.19;5032951;28;20399;-74
2023/02/18 03:26:08;;;;;;;3.53;2.38;;;10.70;99.90;;;9.66;100.00;98130.38;5033629;28;20468;-74
2023/02/18 03:28:34;;;;;;;3.42;2.60;;;10.60;99.90;;;9.58;100.00;98123.59;5033859;28;20445;-74
2023/02/18 03:31:06;;;;;;;2.72;2.10;;;10.50;99.90;;;9.50;100.00;98129.19;5033589;28;20972;-74
2023/02/18 03:33:41;;;;;;;2.90;2.00;;;10.40;99.90;;;9.51;100.00;98120.22;5033621;28;20733;-74
2023/02/18 03:36:08;;;;;;;2.97;2.10;;;10.40;99.90;;;9.44;100.00;98110.78;5033510;28;20413;-74
2023/02/18 03:38:42;;;;;;;5.07;2.37;;;10.40;99.90;;;9.44;100.00;98130.09;5033580;28;20407;-74
2023/02/18 03:41:08;;;;;;;3.47;2.40;;;10.40;99.90;;;9.42;100.00;98118.94;5033531;28;20399;-74
2023/02/18 03:43:34;;;;;;;3.03;2.40;;;10.40;99.90;;;9.40;100.00;98117.56;5033405;28;20490;-74
2023/02/18 03:46:01;;;;;;;2.45;2.10;;;10.30;99.90;;;9.30;100.00;98120.75;5033384;28;20395;-74
2023/02/18 03:48:27;;;;;;;2.92;2.22;;;10.30;99.90;;;9.33;100.00;98113.16;5033444;28;20761;-74
2023/02/18 03:50:53;;;;;;;2.70;2.17;;;10.30;99.90;;;9.25;100.00;98128.53;5033199;28;20403;-74
2023/02/18 03:53:19;;;;;;;9.50;5.83;;;10.20;99.90;;;9.15;100.00;98136.19;5033028;28;20593;-74
2023/02/18 03:55:46;;;;;;;3.05;2.30;;;10.10;99.90;;;9.06;100.00;98132.25;5033202;28;20403;-74
2023/02/18 03:58:12;;;;;;;3.80;2.00;;;10.00;99.90;;;8.91;100.00;98140.56;5033140;28;20985;-74
2023/02/18 04:00:38;;;;;;;2.03;1.83;;;9.90;99.90;;;8.86;100.00;98137.78;5033169;28;20482;-74
2023/02/18 04:03:04;;;;;;;2.67;2.20;;;9.80;99.90;;;8.83;100.00;98135.56;5032809;28;20403;-74
2023/02/18 04:05:30;;;;;;;3.25;2.00;;;9.80;99.90;;;8.81;100.00;98133.16;5033083;28;20405;-74
2023/02/18 04:07:56;;;;;;;2.20;2.00;;;9.80;99.90;;;8.85;100.00;98131.69;5032904;28;20403;-74
2023/02/18 04:10:22;;;;;;;2.30;2.10;;;9.80;99.90;;;8.90;100.00;98134.47;5032988;28;20399;-74
2023/02/18 04:12:49;;;;;;;2.38;2.00;;;9.90;99.90;;;8.94;100.00;98140.13;5032616;28;20426;-74
2023/02/18 04:15:15;;;;;;;3.38;1.98;;;9.90;99.90;;;8.95;100.00;98128.50;5032875;28;20402;-74
2023/02/18 04:17:41;;;;;;;2.50;2.20;;;9.90;99.90;;;8.97;100.00;98139.66;5032820;28;20936;-75
2023/02/18 04:20:08;;;;;;;4.35;2.15;;;9.90;99.90;;;8.98;100.00;98121.97;5032739;28;20765;-75
2023/02/18 04:22:34;;;;;;;3.00;2.28;;;9.90;99.90;;;8.97;100.00;98125.66;5047761;28;20407;-75
2023/02/18 04:25:00;;;;;;;2.65;2.40;;;9.90;99.90;;;8.98;100.00;98132.53;5032559;28;20486;-74
2023/02/18 04:27:26;;;;;;;3.37;2.10;;;9.90;99.90;;;8.92;100.00;98115.75;5032704;28;20825;-75
2023/02/18 04:29:53;;;;;;;3.40;2.60;;;9.90;99.90;;;8.91;100.00;98117.59;5032674;28;20502;-75
2023/02/18 04:32:19;;;;;;;3.58;2.55;;;9.80;99.90;;;8.89;100.00;98109.09;5032434;28;20939;-75
2023/02/18 04:34:45;;;;;;;3.00;2.35;;;9.80;99.90;;;8.93;100.00;98110.25;5047019;28;20423;-75
2023/02/18 04:37:11;;;;;;;3.83;2.38;;;9.90;99.90;;;8.93;100.00;98114.75;5032399;28;20435;-75
2023/02/18 04:39:37;;;;;;;2.97;2.20;;;9.90;99.90;;;8.86;100.00;98116.66;5032467;28;20410;-75
2023/02/18 04:42:07;;;;;;;2.60;2.30;;;9.80;99.90;;;8.81;100.00;98112.03;5032071;28;20759;-75
2023/02/18 04:44:33;;;;;;;3.17;2.03;;;9.80;99.90;;;8.77;100.00;98118.78;5032300;28;20407;-75
2023/02/18 04:47:01;;;;;;;2.60;2.40;;;9.70;99.90;;;8.76;100.00;98127.72;5032286;28;20392;-75
2023/02/18 04:49:27;;;;;;;3.33;2.35;;;9.70;99.90;;;8.72;100.00;98123.91;5032102;28;20411;-75
2023/02/18 04:51:52;;;;;;;3.03;2.67;;;9.70;99.90;;;8.71;100.00;98118.88;5031919;28;20430;-74
2023/02/18 04:54:18;;;;;;;3.20;2.47;;;9.70;99.90;;;8.70;100.00;98119.88;5032159;28;20407;-74
2023/02/18 04:56:44;;;;;;;3.83;2.63;;;9.60;99.90;;;8.68;100.00;98124.56;5031923;28;20908;-74
2023/02/18 04:59:10;;;;;;;3.10;2.22;;;9.60;99.90;;;8.67;100.00;98129.03;5031961;28;20495;-74
2023/02/18 05:01:36;;;;;;;4.10;2.83;;;9.60;99.90;;;8.76;100.00;98126.91;5031812;28;20402;-74
2023/02/18 05:04:03;;;;;;;3.83;2.78;;;9.70;99.90;;;8.69;100.00;98124.38;5034199;28;20409;-72
2023/02/18 05:06:29;;;;;;;3.87;2.77;;;9.60;99.90;;;8.62;100.00;98121.00;5035762;28;20524;-74
2023/02/18 05:08:55;;;;;;;4.40;2.53;;;9.60;99.90;;;8.62;100.00;98117.53;5030526;28;20424;-72
2023/02/18 05:11:21;;;;;;;3.40;2.60;;;9.60;99.90;;;8.58;100.00;98124.28;5035134;28;20908;-74
2023/02/18 05:13:47;;;;;;;3.47;2.60;;;9.60;99.90;;;8.56;100.00;98124.50;5034721;28;20781;-74
2023/02/18 05:16:13;;;;;;;3.03;2.53;;;9.60;99.90;;;8.53;100.00;98123.13;5034757;28;20974;-73
2023/02/18 05:18:39;;;;;;;5.05;2.65;;;9.60;99.90;;;8.48;100.00;98130.88;5030679;28;20441;-74
2023/02/18 05:21:07;;;;;;;2.97;2.30;;;9.50;99.90;;;8.42;100.00;98129.09;5038102;28;20411;-74
2023/02/18 05:23:33;;;;;;;3.75;2.50;;;9.40;99.90;;;8.41;100.00;98130.16;5046096;28;20813;-72
2023/02/18 05:25:59;;;;;;;2.92;2.63;;;9.40;99.90;;;8.37;100.00;98123.69;5050399;22;20435;-76
2023/02/18 05:28:25;;;;;;;3.13;2.53;;;9.40;99.90;;;8.31;100.00;98123.75;5046598;28;20440;-76
2023/02/18 05:30:51;;;;;;;3.57;2.70;;;9.30;99.90;;;8.30;100.00;98127.38;5034551;28;20560;-76
2023/02/18 05:33:16;;;;;;;2.88;2.40;;;9.30;99.90;;;8.27;100.00;98125.19;5044522;28;20466;-75
2023/02/18 05:35:42;;;;;;;3.22;2.63;;;9.30;99.90;;;8.41;100.00;98121.44;5040548;28;20405;-77
2023/02/18 05:38:10;;;;;;;4.10;2.55;;;9.30;99.90;;;8.30;100.00;98114.19;5037661;28;20490;-77
2023/02/18 05:40:36;;;;;;;3.58;2.80;;;9.30;99.90;;;8.29;100.00;98120.50;5047313;28;20437;-76
2023/02/18 05:43:02;;;;;;;5.00;2.47;;;9.30;99.90;;;8.40;100.00;98117.19;5032617;28;20510;-75
2023/02/18 05:45:28;;;;;;;3.88;2.47;;;9.40;99.90;;;8.43;100.00;98114.09;5027591;28;20836;-75
2023/02/18 05:47:54;;;;;;;2.95;2.30;;;9.40;99.90;;;8.54;100.00;98113.38;5030268;28;20571;-75
2023/02/18 05:50:19;;;;;;;4.40;2.40;;;9.40;99.90;;;8.51;100.00;98105.88;5032537;28;20438;-75
2023/02/18 05:52:45;;;;;;;2.73;2.33;;;9.50;99.90;;;8.52;100.00;98107.50;5029989;28;20924;-76
2023/02/18 05:55:13;;;;;;;2.85;2.40;;;9.50;99.90;;;8.53;100.00;98115.19;5027670;28;20406;-75
2023/02/18 05:57:39;;;;;;;3.88;2.30;;;9.50;99.90;;;8.54;100.00;98108.91;5029783;28;20399;-76
2023/02/18 06:00:08;;;;;;;3.30;2.25;;;9.50;99.90;;;8.58;100.00;98105.81;5044494;28;20396;-79
2023/02/18 06:02:34;;;;;;;3.00;2.35;;;9.50;99.90;;;8.57;100.00;98105.00;5049637;28;20397;-80
2023/02/18 06:05:00;;;;;;;3.90;2.50;;;9.50;99.90;;;8.48;100.00;98107.16;5050563;28;20402;-83
2023/02/18 06:07:26;;;;;;;3.67;2.20;;;9.50;99.90;;;8.53;100.00;98103.84;5050517;28;20489;-81
2023/02/18 06:09:52;;;;;;;2.40;2.10;;;9.50;99.90;;;8.53;100.00;98102.00;5065828;28;20409;-81
2023/02/18 06:12:19;;;;;;;3.08;2.20;;;9.50;99.90;;;8.50;100.00;98109.53;5049961;28;20923;-81
2023/02/18 06:14:46;;;;;;;2.92;2.30;;;9.50;99.90;;;8.48;100.00;98109.78;5049762;28;20425;-81
2023/02/18 06:17:13;;;;;;;3.60;2.50;;;9.50;99.90;;;8.47;100.00;98115.28;5050406;28;20402;-81
2023/02/18 06:19:39;;;;;;;2.65;2.30;;;9.40;99.90;;;8.46;100.00;98113.66;5050033;28;20409;-81
2023/02/18 06:22:06;;;;;;;3.72;2.70;;;9.40;99.90;;;8.42;100.00;98120.41;5045206;28;20426;-80
2023/02/18 06:24:33;;;;;;;3.20;2.17;;;9.40;99.90;;;8.39;100.00;98115.56;5029659;28;20403;-80
2023/02/18 06:27:01;;;;;;;2.63;2.37;;;9.40;99.90;;;8.33;100.00;98116.44;5029675;28;20419;-80
2023/02/18 06:29:30;;;;;;;2.95;2.60;;;9.30;99.90;;;8.29;100.00;98110.75;5027411;28;20867;-79
2023/02/18 06:31:56;;;;;;;2.83;2.22;;;9.30;99.90;;;8.20;100.00;98109.41;5029970;28;20796;-79
2023/02/18 06:34:21;;;;;;;2.70;2.33;;;9.20;99.90;;;8.14;100.00;98107.66;5030425;28;20413;-80
2023/02/18 06:36:47;;;;;;;3.05;2.50;;;9.10;99.90;;;8.11;100.00;98108.91;5029594;28;20421;-78
2023/02/18 06:39:13;;;;;;;2.72;2.40;;;9.10;99.90;;;8.16;100.00;98108.25;5030456;28;20403;-75
2023/02/18 06:41:39;;;;;;;2.90;2.10;;;9.20;99.90;;;8.23;100.00;98110.81;5027885;28;20415;-77
2023/02/18 06:44:06;;;;;;;3.33;2.40;;;9.20;99.90;;;8.28;100.00;98103.84;5027592;28;20403;-77
2023/02/18 06:46:33;;;;;;;4.63;2.78;;;9.30;99.90;;;8.35;100.00;98115.19;5030316;28;20498;-76
2023/02/18 06:48:59;;;;;;;3.85;2.70;;;9.30;99.90;;;8.41;100.00;98116.16;5029445;28;20415;-83
2023/02/18 06:51:25;;;;;;;2.85;2.30;;;9.40;99.90;;;8.47;100.00;98116.09;5029891;28;20416;-79
2023/02/18 06:53:51;;;;;;;3.08;2.60;;;9.50;99.90;;;8.55;100.00;98112.34;5029872;28;20503;-78
2023/02/18 06:56:17;;;;;;;3.30;2.25;;;9.50;99.90;;;8.59;100.00;98116.13;5023226;28;20449;-79
2023/02/18 06:58:43;;;;;;;4.00;2.50;;;9.50;99.90;;;8.56;100.00;98118.44;5029406;28;20425;-84
2023/02/18 07:01:09;;;;;;;2.45;2.25;;;9.50;99.90;;;8.65;100.00;98120.53;5035843;28;20414;-84
2023/02/18 07:03:36;;;;;;;4.05;2.40;;;9.60;99.90;;;8.67;100.00;98118.50;5034043;28;20395;-76
2023/02/18 07:06:03;;;;;;;3.22;2.50;;;9.60;99.90;;;8.76;100.00;98114.53;5030631;28;20922;-79
2023/02/18 07:08:29;;;;;;;3.10;2.20;;;9.70;99.90;;;8.81;100.00;98121.78;5034029;28;20415;-82
2023/02/18 07:10:55;;;;;;;3.42;2.45;;;9.70;99.90;;;8.87;100.00;98119.06;5030520;28;20904;-81
2023/02/18 07:13:21;;;;;;;3.95;2.55;;;9.80;99.90;;;9.02;100.00;98113.38;5033445;28;20451;-80
2023/02/18 07:15:47;;;;;;;3.17;2.30;;;9.90;99.90;;;9.10;100.00;98115.72;5037252;28;20820;-83
2023/02/18 07:18:13;;;;;;;3.35;2.55;;;10.00;99.90;;;9.17;100.00;98105.88;5036454;28;20414;-83
2023/02/18 07:20:40;;;;;;;2.63;2.43;;;10.10;99.90;;;9.17;100.00;98110.38;5034163;28;20476;-82
2023/02/18 07:23:06;;;;;;;3.00;2.30;;;10.10;99.90;;;9.23;100.00;98109.47;5033182;28;20403;-77
2023/02/18 07:25:32;;;;;;;2.38;2.10;;;10.10;99.90;;;9.20;100.00;98104.63;5033954;28;20433;-81
2023/02/18 07:27:58;;;;;;;3.20;2.50;;;10.10;99.90;;;9.22;100.00;98100.75;5047893;28;20514;-80
2023/02/18 07:30:24;;;;;;;3.88;2.33;;;10.10;99.90;;;9.30;100.00;98095.13;5031102;28;20481;-83
2023/02/18 07:32:50;;;;;;;3.17;2.45;;;10.20;99.90;;;9.37;100.00;98099.50;5032912;28;20414;-83
2023/02/18 07:35:16;;;;;;;2.95;2.22;;;10.30;99.90;;;9.44;100.00;98102.88;5033255;28;20414;-83
2023/02/18 07:37:45;;;;;;;2.80;2.40;;;10.30;99.90;;;9.55;100.00;98102.06;5033417;28;20413;-83
2023/02/18 07:40:13;;;;;;;3.40;2.50;;;10.40;99.90;;;9.63;100.00;98089.34;5031284;28;20399;-83
2023/02/18 07:42:39;;;;;;;3.53;2.33;;;10.40;99.90;;;9.59;100.00;98090.03;5033331;28;20398;-82
2023/02/18 07:45:06;;;;;;;3.22;2.60;;;10.50;99.90;;;9.68;100.00;98091.31;5048227;28;20920;-82
2023/02/18 07:47:33;;;;;;;2.78;2.53;;;10.60;99.90;;;9.66;100.00;98077.50;5033080;28;20418;-82
2023/02/18 07:49:58;;;;;;;4.37;2.50;;;10.60;99.90;;;9.63;100.00;98076.13;5048654;28;20410;-82
2023/02/18 07:52:24;;;;;;;6.00;2.70;;;10.60;99.90;;;9.73;100.00;98072.91;5032975;28;20418;-83
2023/02/18 07:54:52;;;;;;;5.50;2.67;;;10.60;99.90;;;9.76;100.00;98069.84;5033767;28;20449;-82
2023/02/18 07:57:18;;;;;;;2.87;2.60;;;10.70;99.90;;;9.83;100.00;98064.44;5032843;28;20399;-82
2023/02/18 07:59:43;;;;;;;2.65;2.20;;;10.70;99.90;;;9.88;100.00;98064.53;5032880;28;20915;-82
2023/02/18 08:02:17;;;;;;;3.92;2.40;;;10.70;99.90;;;9.92;100.00;98068.34;5033751;28;20407;-82
2023/02/18 08:04:43;;;;;;;3.15;2.50;;;10.80;99.90;;;10.03;100.00;98078.91;5033956;28;20821;-77
2023/02/18 08:07:13;;;;;;;2.72;2.28;;;10.90;99.90;;;10.10;100.00;98071.66;5032636;28;20418;-82
2023/02/18 08:09:39;;;;;;;2.60;2.25;;;11.00;99.90;;;10.20;100.00;98080.91;5044617;28;20423;-79
2023/02/18 08:12:07;;;;;;;4.13;2.58;;;11.00;99.90;;;10.28;100.00;98075.25;5031069;28;20429;-77
2023/02/18 08:14:33;;;;;;;4.07;2.47;;;11.10;99.90;;;10.30;100.00;98075.84;5032577;28;20488;-79
2023/02/18 08:16:59;;;;;;;3.05;2.40;;;11.10;99.90;;;10.35;100.00;98074.09;5047295;28;20456;-81
2023/02/18 08:19:24;;;;;;;2.80;2.30;;;11.20;99.90;;;10.34;100.00;98084.91;5032206;28;20407;-80
2023/02/18 08:21:50;;;;;;;3.30;2.40;;;11.20;99.90;;;10.51;100.00;98090.31;5032021;28;20434;-80
2023/02/18 08:24:16;;;;;;;3.57;2.30;;;11.40;99.90;;;10.52;100.00;98074.19;5032500;28;20893;-80
2023/02/18 08:26:42;;;;;;;2.50;2.30;;;11.30;99.90;;;10.55;100.00;98086.94;5046176;28;20434;-81
2023/02/18 08:29:10;;;;;;;2.67;2.13;;;11.40;99.90;;;10.52;100.00;98079.50;5029387;28;20445;-78
2023/02/18 08:31:36;;;;;;;3.05;2.17;;;11.40;99.90;;;10.90;100.00;98075.47;5031669;28;20442;-78
2023/02/18 08:34:02;;;;;;;2.78;2.10;;;11.60;99.90;;;10.98;100.00;98072.41;5029004;28;20415;-78
2023/02/18 08:36:29;;;;;;;3.33;2.20;;;11.80;99.90;;;10.92;100.00;98071.53;5028859;28;20414;-77
2023/02/18 08:38:56;;;;;;;3.15;2.20;;;11.80;99.90;;;10.96;100.00;98066.56;5031798;28;20413;-76
2023/02/18 08:41:22;;;;;;;3.30;2.10;;;11.70;99.90;;;10.94;100.00;98063.34;5031677;28;20403;-78
2023/02/18 08:43:48;;;;;;;2.85;2.10;;;11.80;99.90;;;11.02;100.00;98063.78;5031751;28;20409;-79
2023/02/18 08:46:16;;;;;;;2.67;2.17;;;11.80;99.90;;;11.03;100.00;98057.44;5031162;28;20403;-78
2023/02/18 08:48:42;;;;;;;2.85;2.20;;;11.90;99.90;;;11.10;100.00;98058.09;5031382;28;20398;-77
2023/02/18 08:51:15;;;;;;;3.20;2.00;;;11.90;99.90;;;11.14;100.00;98061.88;5031420;28;20407;-77
2023/02/18 08:53:41;;;;;;;3.28;2.00;;;11.90;99.90;;;11.22;100.00;98060.69;5031507;28;20791;-78
2023/02/18 08:56:09;;;;;;;3.13;1.70;;;12.00;99.90;;;11.26;100.00;98069.78;5031850;28;20400;-78
2023/02/18 08:58:38;;;;;;;3.35;1.98;;;12.00;99.90;;;11.14;100.00;98050.47;5031977;28;20403;-76
2023/02/18 09:01:06;;;;;;;2.90;2.00;;;12.00;99.90;;;11.48;100.00;98053.97;5031568;28;20411;-77
2023/02/18 09:03:34;;;;;;;2.53;2.00;;;12.10;99.90;;;11.57;100.00;98052.53;5031831;28;20399;-76
2023/02/18 09:06:00;;;;;;;2.08;1.80;;;12.30;99.90;;;11.78;100.00;98059.81;5031880;28;20490;-76
2023/02/18 09:08:28;;;;;;;3.35;1.77;;;12.50;99.90;;;11.75;100.00;98046.22;5031968;28;20458;-78
2023/02/18 09:10:55;;;;;;;2.20;1.80;;;12.50;99.90;;;11.85;100.00;98052.47;5031438;28;20893;-80
2023/02/18 09:13:21;;;;;;;2.05;1.67;;;12.50;99.90;;;11.77;100.00;98044.94;5031445;28;20912;-80
2023/02/18 09:15:56;;;;;;;2.05;1.85;;;12.50;99.90;;;11.92;100.00;98047.00;5045628;28;20407;-81
2023/02/18 09:18:22;;;;;;;1.73;1.55;;;12.50;99.90;;;11.74;100.00;98047.22;5031044;28;20410;-81
2023/02/18 09:20:50;;;;;;;3.10;1.60;;;12.50;99.90;;;11.70;100.00;98036.31;5031238;28;20403;-79
2023/02/18 09:23:16;;;;;;;2.30;1.90;;;12.50;99.90;;;11.67;100.00;98041.28;5031025;28;20403;-76
2023/02/18 09:25:42;;;;;;;2.65;1.67;;;12.50;99.90;;;11.83;100.00;98037.84;5030888;28;20453;-79
2023/02/18 09:28:08;;;;;;;2.57;1.80;;;12.50;99.90;;;12.01;100.00;98030.44;5046403;28;20936;-76
2023/02/18 09:30:34;;;;;;;1.90;1.70;;;12.70;99.90;;;12.07;100.00;98043.75;5030849;28;20662;-78
2023/02/18 09:33:00;;;;;;;2.97;1.80;;;12.80;99.90;;;12.15;100.00;98019.47;5030602;28;20513;-78
2023/02/18 09:35:26;;;;;;;2.00;1.50;;;12.80;99.90;;;11.99;100.00;98026.41;5030906;28;20844;-77
2023/02/18 09:37:53;;;;;;;2.00;1.63;;;12.80;99.90;;;11.91;100.00;98022.31;5031038;28;20561;-76
2023/02/18 09:40:25;;;;;;;2.58;1.88;;;12.70;99.90;;;11.97;100.00;98020.53;5046162;28;20422;-77
2023/02/18 09:42:53;;;;;;;1.92;1.70;;;12.80;99.90;;;12.09;100.00;98028.41;5030559;28;20429;-77
2023/02/18 09:45:20;;;;;;;2.20;1.60;;;12.80;99.90;;;11.99;100.00;98018.44;5030864;28;20509;-78
2023/02/18 09:48:04;;;;;;;2.47;1.63;;;12.80;99.90;;;12.11;100.00;98013.03;5031998;28;20935;-78
2023/02/18 09:50:34;;;;;;;2.80;1.70;;;12.90;99.90;;;12.33;100.00;98019.97;5030788;28;20411;-77
2023/02/18 09:53:02;;;;;;;2.50;1.70;;;13.10;99.90;;;12.37;100.00;98022.94;5030938;28;20423;-78
2023/02/18 09:55:32;;;;;;;2.15;1.75;;;13.10;99.90;;;12.62;100.00;98022.44;5031106;28;20395;-77
2023/02/18 09:58:16;;;;;;;2.55;1.60;;;13.20;99.90;;;12.34;100.00;98031.38;5030851;28;20406;-79
2023/02/18 10:00:49;;;;;;;1.80;1.65;;;13.20;99.90;;;12.44;100.00;98031.53;5046267;28;20457;-79
2023/02/18 10:03:22;;;;;;;3.65;1.77;;;13.20;99.90;;;12.45;100.00;98019.06;5030651;28;20398;-79
2023/02/18 10:05:59;;;;;;;2.70;1.65;;;13.30;99.90;;;12.36;100.00;98011.50;5030785;28;20402;-77
2023/02/18 10:08:32;;;;;;;2.67;1.63;;;13.20;99.90;;;12.42;100.00;98028.31;5030905;28;20403;-77
2023/02/18 10:10:58;;;;;;;3.60;1.60;;;13.20;99.90;;;12.54;100.00;98006.94;5030842;28;20407;-78
2023/02/18 10:13:32;;;;;;;2.43;1.80;;;13.30;99.90;;;12.69;100.00;98017.75;5030697;28;20418;-78
2023/02/18 10:15:59;;;;;;;3.22;1.63;;;13.50;99.90;;;12.59;100.00;98037.00;5029503;28;20772;-76
2023/02/18 10:18:30;;;;;;;3.60;1.80;;;13.40;99.90;;;12.68;100.00;98019.59;5030865;28;20892;-77
2023/02/18 10:21:05;;;;;;;2.40;1.70;;;13.50;99.90;;;12.66;100.00;98024.34;5030518;28;20494;-78
2023/02/18 10:23:35;;;;;;;1.90;1.60;;;13.40;99.90;;;12.64;100.00;98026.44;5030471;28;20439;-77
2023/02/18 10:26:05;;;;;;;1.70;1.60;;;13.40;99.90;;;12.78;100.00;98025.00;5030302;28;20435;-77